createdAt,value
2022-10-01T00:00:39.328Z,89.30
2022-10-01T00:03:31.065Z,89.34
2022-10-01T00:06:01.568Z,89.31
2022-10-01T00:08:33.316Z,89.42
2022-10-01T00:11:06.735Z,89.45
2022-10-01T00:13:36.042Z,89.46
2022-10-01T00:16:08.360Z,89.55
2022-10-01T00:18:39.420Z,89.62
2022-10-01T00:21:11.114Z,89.68
2022-10-01T00:23:40.578Z,89.68
2022-10-01T00:26:14.967Z,89.67
2022-10-01T00:28:46.580Z,89.69
2022-10-01T00:31:20.083Z,89.72
2022-10-01T00:33:54.286Z,89.70
2022-10-01T00:36:30.172Z,89.75
2022-10-01T00:38:59.894Z,89.85
2022-10-01T00:41:36.992Z,90.00
2022-10-01T00:44:31.975Z,89.96
2022-10-01T00:47:19.965Z,89.88
2022-10-01T00:49:56.387Z,89.95
2022-10-01T00:52:32.650Z,90.00
2022-10-01T00:55:08.464Z,90.01
2022-10-01T00:57:37.438Z,89.97
2022-10-01T01:00:09.193Z,90.02
2022-10-01T01:02:40.752Z,90.10
2022-10-01T01:05:15.323Z,90.15
2022-10-01T01:07:47.348Z,90.17
2022-10-01T01:10:20.219Z,90.12
2022-10-01T01:13:09.193Z,90.15
2022-10-01T01:15:47.259Z,90.17
2022-10-01T01:18:25.720Z,90.21
2022-10-01T01:21:15.861Z,90.30
2022-10-01T01:24:20.076Z,90.31
2022-10-01T01:27:02.441Z,90.28
2022-10-01T01:29:39.604Z,90.33
2022-10-01T01:32:15.172Z,90.31
2022-10-01T01:35:02.099Z,90.41
2022-10-01T01:37:38.582Z,90.45
2022-10-01T01:40:20.692Z,90.51
2022-10-01T01:42:54.441Z,90.46
2022-10-01T01:45:29.833Z,90.46
2022-10-01T01:48:02.220Z,90.45
2022-10-01T01:50:44.122Z,90.48
2022-10-01T01:53:14.645Z,90.54
2022-10-01T01:55:49.007Z,90.50
2022-10-01T01:58:19.280Z,90.41
2022-10-01T02:00:55.872Z,90.48
2022-10-01T02:03:30.199Z,90.44
2022-10-01T02:06:06.710Z,90.48
2022-10-01T02:08:40.546Z,90.60
2022-10-01T02:11:22.944Z,90.66
2022-10-01T02:14:02.019Z,90.64
2022-10-01T02:16:47.460Z,90.58
2022-10-01T02:19:27.514Z,90.65
2022-10-01T02:22:01.450Z,90.55
2022-10-01T02:24:40.435Z,90.57
2022-10-01T02:27:13.613Z,90.61
2022-10-01T02:29:45.115Z,90.63
2022-10-01T02:32:17.457Z,90.57
2022-10-01T02:34:50.612Z,90.69
2022-10-01T02:37:22.540Z,90.73
2022-10-01T02:39:56.642Z,90.73
2022-10-01T02:42:30.762Z,90.72
2022-10-01T02:45:04.386Z,90.71
2022-10-01T02:47:37.402Z,90.80
2022-10-01T02:50:08.930Z,90.82
2022-10-01T02:52:43.134Z,90.84
2022-10-01T02:55:17.932Z,90.74
2022-10-01T02:57:47.060Z,90.79
2022-10-01T03:00:20.729Z,90.83
2022-10-01T03:02:51.474Z,90.87
2022-10-01T03:05:20.358Z,90.92
2022-10-01T03:07:49.540Z,90.95
2022-10-01T03:10:18.959Z,90.86
2022-10-01T03:12:48.588Z,90.78
2022-10-01T03:15:20.197Z,90.79
2022-10-01T03:17:59.661Z,90.74
2022-10-01T03:20:28.356Z,90.67
2022-10-01T03:22:59.796Z,90.66
2022-10-01T03:25:31.552Z,90.66
2022-10-01T03:28:01.874Z,90.69
2022-10-01T03:30:33.874Z,90.64
2022-10-01T03:33:02.465Z,90.59
2022-10-01T03:35:33.552Z,90.58
2022-10-01T03:38:03.212Z,90.59
2022-10-01T03:40:37.495Z,90.62
2022-10-01T03:43:06.482Z,90.63
2022-10-01T03:45:35.321Z,90.68
2022-10-01T03:48:07.465Z,90.74
2022-10-01T03:50:38.648Z,90.74
2022-10-01T03:53:10.506Z,90.69
2022-10-01T03:55:39.288Z,90.72
2022-10-01T03:58:11.176Z,90.79
2022-10-01T04:00:39.780Z,90.72
2022-10-01T04:03:10.797Z,90.72
2022-10-01T04:05:39.489Z,90.50
2022-10-01T04:08:08.498Z,90.25
2022-10-01T04:10:37.407Z,90.13
2022-10-01T04:13:06.729Z,90.12
2022-10-01T04:15:39.864Z,89.88
2022-10-01T04:18:13.100Z,89.75
2022-10-01T04:20:43.115Z,89.83
2022-10-01T04:23:12.281Z,89.64
2022-10-01T04:25:40.932Z,89.42
2022-10-01T04:28:13.173Z,89.39
2022-10-01T04:30:43.512Z,89.44
2022-10-01T04:33:14.337Z,89.54
2022-10-01T04:35:44.671Z,89.68
2022-10-01T04:38:16.216Z,89.56
2022-10-01T04:40:48.263Z,89.59
2022-10-01T04:43:21.239Z,89.69
2022-10-01T04:45:51.431Z,89.74
2022-10-01T04:48:23.868Z,89.72
2022-10-01T04:50:54.183Z,89.84
2022-10-01T04:53:22.877Z,89.95
2022-10-01T04:55:51.503Z,90.01
2022-10-01T04:58:23.550Z,90.09
2022-10-01T05:00:52.291Z,90.19
2022-10-01T05:03:23.344Z,90.17
2022-10-01T05:05:52.051Z,89.92
2022-10-01T05:08:25.289Z,89.74
2022-10-01T05:10:58.911Z,89.65
2022-10-01T05:13:30.808Z,89.79
2022-10-01T05:16:03.280Z,89.86
2022-10-01T05:18:33.097Z,89.90
2022-10-01T05:21:06.700Z,90.01
2022-10-01T05:23:42.323Z,90.03
2022-10-01T05:26:11.091Z,90.09
2022-10-01T05:28:44.565Z,90.18
2022-10-01T05:31:17.977Z,90.28
2022-10-01T05:33:49.849Z,90.28
2022-10-01T05:36:19.640Z,90.23
2022-10-01T05:38:49.181Z,90.17
2022-10-01T05:41:18.923Z,90.30
2022-10-01T05:43:50.839Z,90.49
2022-10-01T05:46:21.720Z,90.74
2022-10-01T05:48:50.822Z,90.87
2022-10-01T05:51:19.677Z,91.15
2022-10-01T05:53:50.546Z,91.29
2022-10-01T05:56:19.221Z,91.47
2022-10-01T05:58:47.896Z,91.68
2022-10-01T06:01:16.457Z,91.72
2022-10-01T06:03:45.147Z,91.86
2022-10-01T06:06:20.139Z,91.92
2022-10-01T06:08:48.948Z,91.92
2022-10-01T06:11:17.537Z,92.06
2022-10-01T06:13:46.289Z,92.12
2022-10-01T06:16:15.595Z,92.17
2022-10-01T06:18:44.433Z,92.29
2022-10-01T06:21:13.042Z,92.42
2022-10-01T06:23:43.747Z,92.60
2022-10-01T06:26:12.257Z,92.81
2022-10-01T06:28:40.659Z,93.02
2022-10-01T06:31:09.080Z,93.15
2022-10-01T06:33:37.597Z,93.23
2022-10-01T06:36:06.512Z,93.30
2022-10-01T06:38:35.108Z,93.24
2022-10-01T06:41:04.569Z,93.26
2022-10-01T06:43:33.777Z,93.42
2022-10-01T06:46:04.070Z,93.53
2022-10-01T06:48:37.006Z,93.31
2022-10-01T06:51:06.022Z,93.32
2022-10-01T06:53:35.273Z,93.33
2022-10-01T06:56:08.127Z,93.35
2022-10-01T06:58:37.130Z,93.27
2022-10-01T07:01:05.784Z,93.27
2022-10-01T07:03:34.308Z,93.19
2022-10-01T07:06:04.284Z,93.10
2022-10-01T07:08:32.899Z,92.97
2022-10-01T07:11:02.885Z,92.76
2022-10-01T07:13:32.443Z,92.52
2022-10-01T07:16:03.654Z,92.47
2022-10-01T07:18:32.145Z,92.07
2022-10-01T07:21:01.119Z,91.71
2022-10-01T07:23:32.388Z,91.33
2022-10-01T07:26:03.243Z,90.85
2022-10-01T07:28:33.242Z,90.66
2022-10-01T07:31:06.514Z,90.23
2022-10-01T07:33:36.161Z,90.09
2022-10-01T07:36:07.402Z,89.89
2022-10-01T07:38:36.387Z,89.51
2022-10-01T07:41:05.267Z,89.59
2022-10-01T07:43:35.712Z,89.25
2022-10-01T07:46:04.444Z,89.02
2022-10-01T07:48:32.989Z,88.59
2022-10-01T07:51:02.079Z,87.19
2022-10-01T07:53:33.576Z,85.64
2022-10-01T07:56:03.368Z,85.00
2022-10-01T07:58:32.907Z,84.49
2022-10-01T08:01:04.861Z,84.14
2022-10-01T08:03:33.737Z,82.58
2022-10-01T08:06:05.661Z,81.02
2022-10-01T08:08:34.140Z,81.49
2022-10-01T08:11:04.257Z,81.25
2022-10-01T08:13:34.579Z,81.83
2022-10-01T08:16:09.448Z,80.43
2022-10-01T08:18:40.419Z,80.66
2022-10-01T08:21:09.912Z,81.96
2022-10-01T08:23:38.853Z,82.43
2022-10-01T08:26:08.804Z,81.67
2022-10-01T08:28:37.506Z,81.13
2022-10-01T08:31:09.529Z,81.28
2022-10-01T08:33:39.590Z,82.22
2022-10-01T08:36:09.061Z,82.16
2022-10-01T08:38:45.740Z,82.39
2022-10-01T08:41:31.956Z,82.33
2022-10-01T08:44:05.382Z,81.15
2022-10-01T08:46:38.197Z,79.98
2022-10-01T08:49:15.787Z,79.96
2022-10-01T08:51:49.914Z,80.00
2022-10-01T08:54:30.588Z,80.49
2022-10-01T08:57:02.644Z,80.23
2022-10-01T08:59:40.519Z,81.08
2022-10-01T09:02:30.191Z,81.51
2022-10-01T09:05:02.716Z,80.96
2022-10-01T09:07:50.843Z,80.77
2022-10-01T09:10:42.812Z,81.20
2022-10-01T09:13:39.314Z,81.46
2022-10-01T09:16:17.629Z,81.12
2022-10-01T09:19:10.624Z,81.47
2022-10-01T09:21:53.095Z,81.74
2022-10-01T09:24:31.834Z,82.26
2022-10-01T09:27:02.259Z,82.07
2022-10-01T09:29:43.126Z,82.42
2022-10-01T09:32:18.769Z,81.95
2022-10-01T09:34:48.041Z,82.10
2022-10-01T09:37:29.926Z,82.04
2022-10-01T09:40:14.558Z,82.28
2022-10-01T09:42:47.501Z,82.77
2022-10-01T09:45:18.067Z,83.17
2022-10-01T09:47:50.846Z,82.82
2022-10-01T09:50:24.726Z,82.19
2022-10-01T09:52:53.841Z,82.83
2022-10-01T09:55:34.858Z,82.36
2022-10-01T09:58:08.912Z,81.88
2022-10-01T10:00:37.839Z,82.00
2022-10-01T10:03:06.552Z,81.45
2022-10-01T10:05:43.372Z,80.96
2022-10-01T10:08:15.724Z,81.67
2022-10-01T10:10:52.365Z,81.82
2022-10-01T10:13:31.214Z,81.65
2022-10-01T10:16:10.443Z,81.66
2022-10-01T10:18:41.031Z,81.88
2022-10-01T10:21:19.207Z,81.65
2022-10-01T10:23:50.208Z,81.97
2022-10-01T10:26:30.632Z,82.02
2022-10-01T10:29:01.608Z,81.68
2022-10-01T10:31:41.056Z,81.46
2022-10-01T10:34:16.218Z,81.57
2022-10-01T10:36:46.192Z,81.51
2022-10-01T10:39:23.178Z,81.73
2022-10-01T10:41:54.025Z,82.08
2022-10-01T10:44:25.549Z,82.37
2022-10-01T10:47:01.335Z,82.86
2022-10-01T10:49:32.615Z,82.58
2022-10-01T10:52:02.465Z,82.94
2022-10-01T10:54:36.904Z,81.96
2022-10-01T10:57:27.301Z,82.20
2022-10-01T10:59:58.696Z,81.02
2022-10-01T11:02:33.193Z,80.72
2022-10-01T11:05:12.577Z,79.22
2022-10-01T11:07:45.453Z,79.42
2022-10-01T11:10:29.853Z,79.49
2022-10-01T11:13:23.009Z,79.22
2022-10-01T11:16:13.663Z,78.82
2022-10-01T11:18:57.917Z,78.61
2022-10-01T11:21:47.587Z,79.48
2022-10-01T11:24:33.733Z,78.94
2022-10-01T11:27:11.792Z,79.17
2022-10-01T11:29:52.498Z,78.00
2022-10-01T11:32:32.963Z,77.82
2022-10-01T11:35:32.541Z,77.04
2022-10-01T11:38:30.709Z,77.93
2022-10-01T11:41:09.786Z,77.47
2022-10-01T11:43:42.373Z,76.20
2022-10-01T11:46:17.696Z,75.45
2022-10-01T11:48:50.892Z,75.07
2022-10-01T11:51:27.838Z,75.85
2022-10-01T11:54:01.551Z,74.40
2022-10-01T11:56:52.793Z,71.82
2022-10-01T11:59:30.037Z,71.77
2022-10-01T12:02:09.755Z,71.72
2022-10-01T12:04:45.369Z,71.13
2022-10-01T12:07:19.962Z,72.95
2022-10-01T12:10:00.863Z,72.48
2022-10-01T12:12:35.271Z,71.12
2022-10-01T12:15:12.072Z,71.11
2022-10-01T12:17:45.088Z,71.43
2022-10-01T12:20:23.443Z,71.30
2022-10-01T12:22:54.543Z,70.66
2022-10-01T12:25:32.068Z,69.26
2022-10-01T12:28:10.784Z,69.08
2022-10-01T12:30:45.931Z,68.91
2022-10-01T12:33:35.593Z,69.12
2022-10-01T12:36:12.639Z,68.90
2022-10-01T12:39:05.496Z,68.99
2022-10-01T12:41:45.989Z,69.60
2022-10-01T12:44:33.110Z,68.46
2022-10-01T12:47:14.423Z,70.49
2022-10-01T12:49:49.894Z,69.43
2022-10-01T12:52:33.204Z,68.24
2022-10-01T12:55:18.152Z,69.10
2022-10-01T12:57:56.648Z,69.09
2022-10-01T13:00:27.110Z,69.18
2022-10-01T13:03:21.629Z,69.93
2022-10-01T13:06:06.888Z,69.00
2022-10-01T13:08:58.394Z,69.22
2022-10-01T13:11:42.591Z,69.46
2022-10-01T13:14:15.009Z,69.91
2022-10-01T13:17:00.227Z,70.32
2022-10-01T13:19:35.879Z,70.47
2022-10-01T13:22:15.951Z,70.84
2022-10-01T13:24:55.265Z,70.94
2022-10-01T13:27:30.720Z,71.36
2022-10-01T13:30:05.446Z,71.58
2022-10-01T13:32:36.855Z,71.83
2022-10-01T13:35:24.692Z,72.20
2022-10-01T13:37:53.693Z,72.16
2022-10-01T13:40:26.612Z,72.65
2022-10-01T13:42:58.173Z,71.84
2022-10-01T13:45:39.404Z,72.16
2022-10-01T13:48:16.955Z,72.12
2022-10-01T13:51:02.507Z,72.27
2022-10-01T13:53:35.905Z,72.35
2022-10-01T13:56:05.917Z,72.27
2022-10-01T13:58:38.882Z,71.96
2022-10-01T14:01:28.434Z,72.08
2022-10-01T14:04:06.873Z,72.29
2022-10-01T14:06:44.059Z,72.46
2022-10-01T14:09:19.207Z,72.59
2022-10-01T14:12:10.615Z,72.71
2022-10-01T14:15:02.256Z,72.85
2022-10-01T14:17:35.733Z,72.60
2022-10-01T14:20:05.737Z,72.90
2022-10-01T14:22:50.444Z,73.26
2022-10-01T14:25:34.472Z,73.73
2022-10-01T14:28:26.570Z,74.01
2022-10-01T14:31:04.780Z,74.05
2022-10-01T14:33:50.577Z,74.41
2022-10-01T14:36:20.872Z,74.96
2022-10-01T14:38:49.667Z,74.87
2022-10-01T14:41:20.334Z,74.70
2022-10-01T14:43:49.470Z,74.56
2022-10-01T14:46:18.939Z,74.82
2022-10-01T14:48:58.329Z,74.98
2022-10-01T14:51:31.075Z,74.89
2022-10-01T14:54:00.731Z,74.93
2022-10-01T14:56:32.465Z,75.29
2022-10-01T14:59:05.489Z,75.57
2022-10-01T15:01:41.410Z,75.74
2022-10-01T15:04:19.754Z,75.76
2022-10-01T15:06:48.680Z,76.08
2022-10-01T15:09:19.111Z,76.37
2022-10-01T15:11:50.788Z,76.59
2022-10-01T15:14:22.108Z,76.74
2022-10-01T15:16:52.211Z,76.93
2022-10-01T15:19:22.916Z,77.33
2022-10-01T15:21:54.647Z,77.30
2022-10-01T15:24:33.068Z,77.60
2022-10-01T15:27:02.078Z,77.45
2022-10-01T15:29:31.971Z,77.68
2022-10-01T15:32:03.402Z,77.73
2022-10-01T15:34:34.241Z,78.00
2022-10-01T15:37:06.029Z,78.45
2022-10-01T15:39:38.702Z,78.41
2022-10-01T15:42:22.936Z,78.48
2022-10-01T15:45:10.534Z,78.76
2022-10-01T15:47:41.701Z,78.86
2022-10-01T15:50:30.367Z,78.84
2022-10-01T15:53:06.768Z,79.07
2022-10-01T15:55:39.951Z,79.41
2022-10-01T15:58:15.217Z,79.35
2022-10-01T16:00:57.769Z,79.50
2022-10-01T16:03:30.928Z,79.71
2022-10-01T16:06:01.614Z,79.93
2022-10-01T16:08:39.591Z,79.88
2022-10-01T16:11:31.809Z,80.13
2022-10-01T16:14:25.428Z,80.25
2022-10-01T16:17:36.511Z,80.38
2022-10-01T16:20:39.178Z,80.61
2022-10-01T16:23:33.149Z,80.71
2022-10-01T16:26:02.646Z,80.86
2022-10-01T16:28:35.184Z,80.89
2022-10-01T16:31:08.397Z,80.98
2022-10-01T16:33:37.656Z,80.91
2022-10-01T16:36:10.653Z,81.25
2022-10-01T16:38:40.874Z,81.29
2022-10-01T16:41:10.131Z,81.65
2022-10-01T16:43:38.850Z,81.82
2022-10-01T16:46:07.670Z,81.88
2022-10-01T16:48:36.309Z,81.83
2022-10-01T16:51:05.634Z,82.12
2022-10-01T16:53:38.926Z,81.99
2022-10-01T16:56:08.233Z,82.09
2022-10-01T16:58:37.912Z,82.20
2022-10-01T17:01:08.928Z,82.30
2022-10-01T17:03:37.837Z,82.44
2022-10-01T17:06:07.090Z,82.33
2022-10-01T17:08:39.977Z,82.43
2022-10-01T17:11:12.935Z,82.39
2022-10-01T17:13:49.072Z,82.20
2022-10-01T17:16:24.408Z,82.46
2022-10-01T17:18:53.323Z,82.59
2022-10-01T17:21:25.055Z,82.66
2022-10-01T17:23:58.991Z,82.82
2022-10-01T17:26:27.757Z,82.91
2022-10-01T17:28:57.419Z,82.82
2022-10-01T17:31:27.210Z,82.87
2022-10-01T17:34:11.351Z,83.00
2022-10-01T17:36:43.426Z,83.14
2022-10-01T17:39:18.125Z,83.27
2022-10-01T17:41:47.799Z,83.34
2022-10-01T17:44:18.579Z,83.57
2022-10-01T17:46:50.975Z,83.52
2022-10-01T17:49:20.068Z,83.47
2022-10-01T17:51:50.157Z,83.59
2022-10-01T17:54:19.560Z,83.61
2022-10-01T17:56:52.254Z,83.75
2022-10-01T17:59:21.579Z,83.94
2022-10-01T18:01:52.364Z,84.01
2022-10-01T18:04:24.385Z,84.01
2022-10-01T18:06:56.089Z,84.21
2022-10-01T18:09:27.988Z,84.27
2022-10-01T18:11:58.198Z,84.34
2022-10-01T18:21:15.878Z,84.49
2022-10-01T18:23:47.274Z,84.66
2022-10-01T18:26:19.114Z,84.85
2022-10-01T18:28:48.431Z,84.93
2022-10-01T18:31:20.425Z,84.81
2022-10-01T18:33:51.206Z,84.75
2022-10-01T18:36:27.033Z,84.70
2022-10-01T18:39:07.602Z,84.76
2022-10-01T18:41:41.041Z,84.83
2022-10-01T18:44:15.681Z,84.86
2022-10-01T18:47:04.170Z,85.12
2022-10-01T18:49:56.436Z,85.25
2022-10-01T18:52:38.153Z,85.46
2022-10-01T18:55:31.197Z,85.52
2022-10-01T18:58:26.513Z,85.57
2022-10-01T19:01:17.634Z,85.64
2022-10-01T19:04:03.209Z,85.89
2022-10-01T19:06:48.686Z,86.09
2022-10-01T19:09:38.334Z,86.26
2022-10-01T19:12:51.387Z,86.15
2022-10-01T19:15:33.708Z,86.22
2022-10-01T19:18:19.045Z,86.40
2022-10-01T19:20:58.122Z,86.59
2022-10-01T19:23:46.949Z,86.78
2022-10-01T19:26:25.805Z,86.87
2022-10-01T19:29:09.286Z,86.86
2022-10-01T19:31:50.661Z,86.91
2022-10-01T19:34:24.711Z,87.16
2022-10-01T19:36:59.766Z,86.99
2022-10-01T19:39:36.499Z,87.31
2022-10-01T19:42:11.768Z,87.35
2022-10-01T19:44:55.923Z,87.45
2022-10-01T19:47:40.178Z,87.64
2022-10-01T19:50:20.768Z,87.86
2022-10-01T19:52:52.560Z,88.02
2022-10-01T19:55:24.654Z,88.15
2022-10-01T19:57:53.618Z,88.31
2022-10-01T20:00:25.401Z,88.17
2022-10-01T20:03:04.890Z,88.10
2022-10-01T20:05:40.989Z,88.41
2022-10-01T20:08:16.650Z,88.46
2022-10-01T20:10:52.620Z,88.46
2022-10-01T20:13:31.264Z,88.61
2022-10-01T20:16:14.683Z,88.44
2022-10-01T20:18:50.987Z,88.54
2022-10-01T20:21:40.891Z,88.75
2022-10-01T20:24:21.794Z,88.75
2022-10-01T20:27:02.127Z,88.61
2022-10-01T20:29:45.164Z,89.10
2022-10-01T20:32:19.665Z,89.10
2022-10-01T20:35:01.387Z,89.19
2022-10-01T20:37:44.702Z,88.84
2022-10-01T20:40:24.606Z,89.26
2022-10-01T20:42:57.715Z,89.33
2022-10-01T20:45:32.815Z,89.35
2022-10-01T20:48:07.614Z,89.59
2022-10-01T20:50:44.079Z,89.60
2022-10-01T20:53:31.236Z,89.76
2022-10-01T20:56:09.380Z,89.62
2022-10-01T20:58:45.541Z,89.90
2022-10-01T21:01:16.696Z,89.97
2022-10-01T21:03:49.297Z,89.84
2022-10-01T21:06:25.246Z,90.03
2022-10-01T21:08:58.683Z,89.84
2022-10-01T21:11:33.069Z,89.85
2022-10-01T21:14:12.129Z,90.22
2022-10-01T21:17:16.730Z,90.14
2022-10-01T21:20:19.925Z,90.59
2022-10-01T21:23:00.806Z,90.06
2022-10-01T21:25:41.775Z,90.57
2022-10-01T21:28:30.774Z,90.09
2022-10-01T21:31:18.397Z,89.97
2022-10-01T21:33:53.474Z,89.72
2022-10-01T21:36:27.774Z,89.47
2022-10-01T21:39:04.946Z,89.43
2022-10-01T21:41:49.990Z,89.36
2022-10-01T21:44:38.666Z,89.68
2022-10-01T21:47:12.267Z,89.68
2022-10-01T21:49:53.030Z,89.92
2022-10-01T21:52:32.351Z,89.49
2022-10-01T21:55:15.488Z,89.45
2022-10-01T21:58:00.955Z,89.64
2022-10-01T22:00:33.091Z,89.54
2022-10-01T22:03:19.494Z,89.82
2022-10-01T22:05:56.985Z,89.75
2022-10-01T22:08:45.461Z,89.97
2022-10-01T22:11:18.675Z,89.90
2022-10-01T22:13:51.392Z,89.89
2022-10-01T22:16:22.421Z,90.06
2022-10-01T22:18:55.748Z,90.04
2022-10-01T22:21:28.262Z,90.04
2022-10-01T22:24:06.438Z,90.07
2022-10-01T22:26:39.267Z,90.11
2022-10-01T22:29:14.589Z,90.12
2022-10-01T22:31:46.318Z,90.23
2022-10-01T22:34:19.987Z,90.24
2022-10-01T22:36:54.409Z,90.13
2022-10-01T22:39:26.908Z,90.32
2022-10-01T22:42:03.853Z,90.13
2022-10-01T22:44:35.554Z,90.19
2022-10-01T22:47:28.499Z,90.32
2022-10-01T22:50:21.652Z,90.35
2022-10-01T22:53:03.510Z,90.42
2022-10-01T22:55:44.968Z,90.49
2022-10-01T22:58:27.266Z,90.55
2022-10-01T23:01:06.818Z,90.55
2022-10-01T23:03:49.471Z,90.60
2022-10-01T23:06:32.869Z,90.52
2022-10-01T23:09:09.452Z,90.59
2022-10-01T23:11:48.225Z,90.79
2022-10-01T23:14:39.602Z,90.83
2022-10-01T23:17:14.477Z,90.79
2022-10-01T23:19:52.941Z,90.78
2022-10-01T23:22:35.031Z,90.93
2022-10-01T23:25:17.824Z,90.99
2022-10-01T23:28:07.774Z,90.99
2022-10-01T23:30:51.079Z,91.01
2022-10-01T23:33:32.986Z,91.01
2022-10-01T23:36:09.488Z,90.97
2022-10-01T23:39:06.076Z,91.12
2022-10-01T23:41:41.114Z,91.22
2022-10-01T23:44:17.567Z,91.17
2022-10-01T23:46:50.131Z,91.24
2022-10-01T23:49:23.796Z,91.02
2022-10-01T23:52:00.914Z,91.03
2022-10-01T23:54:35.942Z,91.02
2022-10-01T23:57:14.431Z,91.01
2022-10-01T23:59:45.873Z,90.86
